Flugplatz Schameder

Für EDGQ sind keine METAR/TAF Berichte vorhanden.
Es werden die Flugwettermeldungen vom Flugplatz Siegerland in 36 km Entfernung angezeigt.

Bericht für EDGS

vom 15.07. um 15:50 UTC

Wind 8 kt aus 310°

Sichtweite 10 km oder mehr

aufgelockert bewölkt in 3800 ft

Temperatur 16.0°C

Taupunkt 8.0°C

Luftfeuchtigkeit 59%

Luftdruck 1015 hPa

EDGS 151550Z 31008KT 280V340 9999 SCT038 16/08 Q1015

Prognose für EDGS

vom 15.07. um 14:00 UTC

Zwischen 15:00 UTC und 17:00 UTC

Wind 10 kt aus 300°

Sichtweite 10 km oder mehr

aufgelockert bewölkt in 3500 ft


Zwischen 17:00 und 20:00 UTC übergehend zu

Wind 5 kt aus 300°

Sichtweite 10 km oder mehr

aufgelockert bewölkt in 3500 ft

TAF EDGS 151400Z 1515/1524 30010KT 9999 SCT035 BECMG 1517/1520 30005KT
Impressum